createdAt,value
2022-11-16T00:02:21.950Z,63.80
2022-11-16T00:04:56.868Z,64.00
2022-11-16T00:07:31.938Z,64.30
2022-11-16T00:10:07.723Z,64.40
2022-11-16T00:12:42.705Z,64.60
2022-11-16T00:15:17.649Z,64.80
2022-11-16T00:17:52.566Z,64.70
2022-11-16T00:20:27.511Z,64.90
2022-11-16T00:23:02.420Z,64.80
2022-11-16T00:25:37.374Z,64.80
2022-11-16T00:28:12.793Z,64.60
2022-11-16T00:30:59.343Z,64.50
2022-11-16T00:33:35.035Z,64.10
2022-11-16T00:36:12.470Z,64.60
2022-11-16T00:38:47.980Z,64.80
2022-11-16T00:41:22.997Z,64.70
2022-11-16T00:43:58.018Z,65.00
2022-11-16T00:46:33.266Z,64.80
2022-11-16T00:49:10.153Z,64.50
2022-11-16T00:51:45.418Z,64.60
2022-11-16T00:54:22.223Z,64.30
2022-11-16T00:56:57.653Z,64.80
2022-11-16T00:59:34.080Z,65.00
2022-11-16T01:02:09.055Z,65.20
2022-11-16T01:04:43.962Z,65.20
2022-11-16T01:07:19.013Z,65.20
2022-11-16T01:09:55.473Z,65.80
2022-11-16T01:12:30.404Z,66.00
2022-11-16T01:15:09.398Z,65.90
2022-11-16T01:17:44.857Z,65.90
2022-11-16T01:20:22.556Z,65.30
2022-11-16T01:22:57.559Z,64.90
2022-11-16T01:25:33.104Z,64.40
2022-11-16T01:28:08.000Z,64.40
2022-11-16T01:30:52.410Z,63.90
2022-11-16T01:33:28.607Z,64.50
2022-11-16T01:36:14.374Z,64.40
2022-11-16T01:38:50.673Z,64.60
2022-11-16T01:41:28.872Z,64.80
2022-11-16T01:44:15.262Z,64.90
2022-11-16T01:47:02.433Z,65.20
2022-11-16T01:49:44.514Z,65.40
2022-11-16T01:52:24.380Z,65.50
2022-11-16T01:55:00.168Z,65.40
2022-11-16T01:57:42.848Z,65.70
2022-11-16T02:00:19.108Z,65.20
2022-11-16T02:03:06.500Z,65.80
2022-11-16T02:06:13.085Z,66.70
2022-11-16T02:09:16.731Z,66.20
2022-11-16T02:12:30.258Z,66.80
2022-11-16T02:15:41.935Z,67.10
2022-11-16T02:18:38.630Z,67.50
2022-11-16T02:21:43.924Z,67.30
2022-11-16T02:24:43.777Z,67.40
2022-11-16T02:27:52.406Z,67.10
2022-11-16T02:30:27.314Z,67.00
2022-11-16T02:33:13.601Z,67.40
2022-11-16T02:35:56.957Z,67.90
2022-11-16T02:38:39.139Z,67.30
2022-11-16T02:41:21.162Z,67.50
2022-11-16T02:44:20.123Z,67.80
2022-11-16T02:47:03.737Z,67.90
2022-11-16T02:49:45.496Z,67.90
2022-11-16T02:52:23.058Z,68.60
2022-11-16T02:54:58.060Z,68.50
2022-11-16T02:58:03.903Z,68.70
2022-11-16T03:01:06.460Z,68.70
2022-11-16T03:03:58.748Z,69.00
2022-11-16T03:06:36.385Z,69.30
2022-11-16T03:09:18.348Z,70.00
2022-11-16T03:11:59.504Z,70.70
2022-11-16T03:14:45.088Z,70.90
2022-11-16T03:17:30.058Z,71.10
2022-11-16T03:20:11.624Z,70.90
2022-11-16T03:22:58.632Z,70.70
2022-11-16T03:25:47.463Z,70.70
2022-11-16T03:28:33.955Z,70.60
2022-11-16T03:31:19.886Z,70.60
2022-11-16T03:33:58.853Z,70.70
2022-11-16T03:36:41.278Z,70.80
2022-11-16T03:39:24.928Z,70.90
2022-11-16T03:42:02.953Z,71.20
2022-11-16T03:44:38.983Z,70.60
2022-11-16T03:47:16.050Z,70.60
2022-11-16T03:49:50.971Z,70.50
2022-11-16T03:52:27.702Z,70.40
2022-11-16T03:55:02.752Z,70.30
2022-11-16T03:57:37.930Z,70.50
2022-11-16T04:00:13.290Z,70.60
2022-11-16T04:02:52.098Z,70.60
2022-11-16T04:05:48.045Z,70.80
2022-11-16T04:08:41.436Z,71.00
2022-11-16T04:11:41.157Z,71.20
2022-11-16T04:14:40.955Z,71.10
2022-11-16T04:17:38.310Z,71.10
2022-11-16T04:20:33.766Z,71.20
2022-11-16T04:23:33.118Z,71.20
2022-11-16T04:26:11.400Z,71.50
2022-11-16T04:28:46.382Z,71.60
2022-11-16T04:31:39.819Z,71.50
2022-11-16T04:34:37.166Z,72.60
2022-11-16T04:37:36.721Z,72.60
2022-11-16T04:40:12.953Z,72.50
2022-11-16T04:42:57.042Z,72.60
2022-11-16T04:45:51.042Z,72.70
2022-11-16T04:48:28.249Z,72.40
2022-11-16T04:51:04.242Z,72.40
2022-11-16T04:53:40.249Z,72.50
2022-11-16T04:56:23.472Z,72.60
2022-11-16T04:58:58.463Z,72.50
2022-11-16T05:01:52.544Z,72.50
2022-11-16T05:04:27.614Z,72.40
2022-11-16T05:07:03.168Z,72.50
2022-11-16T05:09:44.403Z,72.50
2022-11-16T05:12:27.325Z,73.10
2022-11-16T05:15:09.371Z,72.60
2022-11-16T05:17:44.343Z,72.50
2022-11-16T05:20:42.826Z,72.60
2022-11-16T05:23:36.283Z,72.50
2022-11-16T05:26:17.147Z,72.50
2022-11-16T05:28:52.071Z,72.60
2022-11-16T05:31:27.081Z,72.80
2022-11-16T05:34:02.900Z,72.80
2022-11-16T05:36:39.143Z,72.80
2022-11-16T05:39:14.830Z,72.80
2022-11-16T05:41:51.702Z,72.90
2022-11-16T05:44:26.783Z,73.60
2022-11-16T05:47:01.900Z,72.90
2022-11-16T05:49:36.927Z,73.00
2022-11-16T05:52:11.922Z,73.00
2022-11-16T05:54:48.251Z,73.10
2022-11-16T05:57:23.280Z,73.10
2022-11-16T05:59:58.337Z,73.00
2022-11-16T06:02:33.665Z,72.90
2022-11-16T06:05:08.960Z,72.80
2022-11-16T06:07:44.436Z,72.90
2022-11-16T06:10:20.332Z,72.80
2022-11-16T06:12:58.105Z,72.90
2022-11-16T06:15:38.298Z,73.10
2022-11-16T06:18:13.828Z,73.20
2022-11-16T06:20:48.971Z,73.30
2022-11-16T06:23:25.522Z,73.30
2022-11-16T06:26:04.057Z,73.40
2022-11-16T06:28:39.582Z,73.70
2022-11-16T06:31:14.630Z,73.80
2022-11-16T06:33:50.373Z,73.90
2022-11-16T06:36:30.551Z,74.00
2022-11-16T06:39:06.846Z,74.00
2022-11-16T06:41:44.785Z,74.00
2022-11-16T06:44:21.402Z,73.90
2022-11-16T06:47:04.230Z,74.00
2022-11-16T06:49:40.228Z,74.10
2022-11-16T06:52:21.950Z,74.10
2022-11-16T06:54:56.879Z,74.10
2022-11-16T06:57:35.492Z,74.10
2022-11-16T07:00:12.625Z,74.00
2022-11-16T07:02:47.642Z,74.10
2022-11-16T07:05:26.281Z,74.40
2022-11-16T07:08:02.501Z,73.90
2022-11-16T07:10:38.354Z,74.00
2022-11-16T07:13:15.066Z,74.20
2022-11-16T07:15:50.157Z,74.10
2022-11-16T07:18:25.083Z,73.80
2022-11-16T07:21:00.456Z,73.60
2022-11-16T07:23:36.350Z,73.40
2022-11-16T07:26:11.934Z,73.00
2022-11-16T07:28:53.131Z,72.90
2022-11-16T07:31:30.786Z,72.90
2022-11-16T07:34:24.283Z,73.10
2022-11-16T07:37:13.648Z,72.40
2022-11-16T07:39:48.728Z,70.20
2022-11-16T07:42:24.043Z,68.80
2022-11-16T07:45:21.539Z,69.10
2022-11-16T07:48:01.736Z,68.00
2022-11-16T07:51:08.728Z,67.50
2022-11-16T07:53:47.754Z,67.00
2022-11-16T07:56:22.845Z,65.70
2022-11-16T07:58:59.031Z,62.90
2022-11-16T08:01:34.564Z,63.60
2022-11-16T08:04:09.549Z,62.50
2022-11-16T08:06:46.790Z,58.10
2022-11-16T08:09:21.749Z,55.50
2022-11-16T08:11:58.350Z,55.70
2022-11-16T08:14:33.244Z,54.70
2022-11-16T08:17:09.552Z,54.70
2022-11-16T08:19:46.833Z,52.70
2022-11-16T08:22:23.909Z,52.30
2022-11-16T08:24:59.016Z,51.70
2022-11-16T08:27:34.327Z,51.80
2022-11-16T08:30:10.673Z,51.20
2022-11-16T08:32:47.137Z,51.30
2022-11-16T08:35:23.574Z,50.70
2022-11-16T08:37:58.531Z,50.80
2022-11-16T08:40:37.096Z,51.30
2022-11-16T08:43:13.258Z,50.90
2022-11-16T08:45:49.469Z,49.80
2022-11-16T08:48:24.713Z,49.70
2022-11-16T08:51:18.492Z,49.60
2022-11-16T08:53:59.803Z,48.40
2022-11-16T08:56:36.063Z,46.40
2022-11-16T08:59:12.538Z,46.90
2022-11-16T09:01:52.953Z,47.00
2022-11-16T09:04:30.523Z,47.10
2022-11-16T09:07:10.274Z,47.30
2022-11-16T09:09:45.273Z,47.70
2022-11-16T09:12:20.182Z,48.40
2022-11-16T09:14:55.102Z,48.60
2022-11-16T09:17:30.149Z,48.80
2022-11-16T09:20:06.334Z,48.50
2022-11-16T09:22:41.846Z,48.60
2022-11-16T09:25:19.009Z,48.60
2022-11-16T09:27:56.928Z,49.10
2022-11-16T09:30:31.910Z,48.50
2022-11-16T09:33:06.791Z,47.50
2022-11-16T09:35:42.056Z,46.50
2022-11-16T09:38:24.227Z,46.40
2022-11-16T09:41:15.151Z,46.60
2022-11-16T09:44:23.380Z,45.80
2022-11-16T09:47:00.475Z,45.50
2022-11-16T09:49:46.518Z,45.60
2022-11-16T09:52:34.649Z,45.80
2022-11-16T09:55:35.221Z,45.10
2022-11-16T09:58:18.327Z,45.10
2022-11-16T10:01:00.635Z,44.40
2022-11-16T10:03:41.296Z,44.90
2022-11-16T10:06:50.148Z,45.10
2022-11-16T10:09:25.851Z,45.50
2022-11-16T10:12:25.168Z,46.10
2022-11-16T10:15:50.542Z,46.20
2022-11-16T10:18:43.977Z,46.30
2022-11-16T10:21:33.062Z,46.40
2022-11-16T10:24:36.120Z,46.30
2022-11-16T10:27:27.678Z,46.70
2022-11-16T10:30:12.284Z,46.30
2022-11-16T10:33:01.037Z,46.00
2022-11-16T10:35:42.137Z,45.60
2022-11-16T10:38:28.893Z,45.50
2022-11-16T10:41:28.645Z,45.10
2022-11-16T10:44:19.949Z,45.00
2022-11-16T10:47:09.602Z,44.00
2022-11-16T10:49:57.592Z,44.30
2022-11-16T10:52:32.554Z,43.70
2022-11-16T10:55:08.084Z,42.60
2022-11-16T10:58:06.468Z,42.30
2022-11-16T11:00:53.538Z,41.40
2022-11-16T11:03:32.669Z,40.90
2022-11-16T11:06:11.611Z,40.70
2022-11-16T11:08:46.475Z,39.80
2022-11-16T11:11:42.124Z,40.00
2022-11-16T11:14:17.061Z,40.10
2022-11-16T11:16:54.986Z,40.30
2022-11-16T11:19:30.009Z,40.30
2022-11-16T11:22:04.921Z,39.80
2022-11-16T11:24:48.461Z,39.20
2022-11-16T11:27:33.981Z,39.10
2022-11-16T11:30:20.451Z,38.90
2022-11-16T11:32:55.542Z,39.10
2022-11-16T11:35:32.792Z,39.20
2022-11-16T11:38:08.569Z,39.10
2022-11-16T11:40:58.536Z,38.70
2022-11-16T11:43:34.923Z,39.30
2022-11-16T11:46:34.538Z,39.50
2022-11-16T11:49:33.230Z,39.90
2022-11-16T11:52:25.824Z,40.10
2022-11-16T11:55:03.146Z,40.50
2022-11-16T11:57:43.290Z,40.20
2022-11-16T12:00:18.534Z,40.10
2022-11-16T12:03:28.577Z,40.00
2022-11-16T12:06:32.196Z,40.10
2022-11-16T12:09:19.092Z,40.00
2022-11-16T12:12:18.237Z,39.80
2022-11-16T12:15:06.613Z,40.10
2022-11-16T12:17:55.439Z,40.30
2022-11-16T12:21:13.884Z,40.20
2022-11-16T12:24:23.732Z,40.30
2022-11-16T12:27:37.129Z,40.30
2022-11-16T12:30:18.429Z,39.60
2022-11-16T12:32:59.139Z,39.20
2022-11-16T12:35:47.447Z,38.90
2022-11-16T12:38:50.053Z,38.60
2022-11-16T12:41:59.799Z,38.70
2022-11-16T12:45:10.330Z,38.30
2022-11-16T12:47:59.284Z,38.40
2022-11-16T12:51:27.505Z,36.50
2022-11-16T12:54:48.059Z,36.10
2022-11-16T12:57:52.829Z,36.60
2022-11-16T13:00:31.839Z,32.70
2022-11-16T13:03:26.598Z,31.80
2022-11-16T13:06:12.349Z,31.70
2022-11-16T13:09:05.873Z,30.70
2022-11-16T13:11:52.429Z,31.40
2022-11-16T13:14:39.112Z,30.50
2022-11-16T13:17:22.812Z,30.40
2022-11-16T13:20:15.112Z,31.50
2022-11-16T13:23:31.530Z,30.50
2022-11-16T13:26:35.139Z,29.70
2022-11-16T13:30:03.036Z,29.10
2022-11-16T13:32:52.985Z,29.00
2022-11-16T13:35:28.258Z,28.80
2022-11-16T13:38:03.263Z,28.80
2022-11-16T13:40:38.327Z,28.90
2022-11-16T13:43:13.212Z,28.90
2022-11-16T13:45:56.978Z,28.90
2022-11-16T13:48:37.594Z,29.50
2022-11-16T13:51:22.931Z,30.50
2022-11-16T13:54:43.790Z,30.00
2022-11-16T13:56:52.920Z,29.80
2022-11-16T13:59:32.652Z,30.00
2022-11-16T14:02:40.953Z,31.30
2022-11-16T14:05:41.614Z,32.30
2022-11-16T14:08:19.502Z,31.40
2022-11-16T14:10:54.323Z,30.90
2022-11-16T14:13:43.778Z,30.30
2022-11-16T14:16:21.543Z,31.20
2022-11-16T14:19:00.356Z,30.00
2022-11-16T14:21:56.610Z,30.00
2022-11-16T14:24:50.046Z,29.60
2022-11-16T14:27:58.420Z,30.10
2022-11-16T14:30:55.207Z,29.30
2022-11-16T14:33:36.431Z,29.60
2022-11-16T14:36:11.812Z,30.00
2022-11-16T14:38:47.566Z,31.80
2022-11-16T14:41:24.953Z,32.10
2022-11-16T14:44:00.041Z,32.90
2022-11-16T14:46:36.303Z,34.20
2022-11-16T14:49:17.075Z,32.40
2022-11-16T14:52:01.933Z,29.80
2022-11-16T14:54:46.559Z,30.30
2022-11-16T14:57:23.758Z,30.80
2022-11-16T15:00:30.209Z,31.20
2022-11-16T15:03:06.164Z,30.10
2022-11-16T15:05:41.183Z,30.70
2022-11-16T15:08:24.776Z,31.30
2022-11-16T15:11:00.369Z,31.80
2022-11-16T15:13:36.423Z,32.40
2022-11-16T15:16:19.117Z,32.20
2022-11-16T15:19:02.071Z,32.20
2022-11-16T15:21:37.003Z,32.20
2022-11-16T15:24:40.001Z,32.70
2022-11-16T15:27:40.677Z,32.80
2022-11-16T15:30:27.577Z,33.50
2022-11-16T15:33:10.764Z,33.10
2022-11-16T15:35:47.250Z,33.30
2022-11-16T15:38:26.096Z,32.90
2022-11-16T15:41:04.103Z,33.30
2022-11-16T15:44:12.323Z,33.10
2022-11-16T15:46:50.951Z,33.50
2022-11-16T15:49:37.666Z,33.60
2022-11-16T15:52:12.721Z,33.30
2022-11-16T15:55:03.863Z,33.60
2022-11-16T15:57:45.497Z,34.00
2022-11-16T16:00:25.853Z,34.40
2022-11-16T16:03:24.034Z,34.80
2022-11-16T16:05:59.272Z,34.30
2022-11-16T16:08:36.769Z,33.60
2022-11-16T16:11:20.348Z,33.60
2022-11-16T16:14:02.359Z,33.90
2022-11-16T16:16:39.351Z,34.10
2022-11-16T16:19:53.297Z,34.40
2022-11-16T16:22:32.477Z,34.20
2022-11-16T16:25:30.982Z,33.80
2022-11-16T16:28:05.900Z,33.60
2022-11-16T16:30:40.929Z,33.90
2022-11-16T16:33:19.635Z,33.80
2022-11-16T16:35:54.481Z,34.30
2022-11-16T16:38:29.768Z,34.10
2022-11-16T16:41:06.264Z,34.50
2022-11-16T16:43:41.106Z,34.60
2022-11-16T16:46:16.622Z,34.80
2022-11-16T16:48:51.457Z,34.70
2022-11-16T16:51:26.364Z,35.00
2022-11-16T16:54:01.407Z,35.00
2022-11-16T16:56:36.338Z,35.00
2022-11-16T16:59:14.092Z,35.20
2022-11-16T17:01:49.772Z,35.10
2022-11-16T17:04:25.447Z,36.30
2022-11-16T17:07:00.359Z,35.40
2022-11-16T17:09:35.337Z,35.50
2022-11-16T17:12:10.942Z,35.70
2022-11-16T17:14:51.434Z,35.90
2022-11-16T17:17:27.379Z,36.00
2022-11-16T17:20:02.312Z,36.20
2022-11-16T17:22:37.553Z,36.30
2022-11-16T17:25:12.524Z,36.30
2022-11-16T17:27:47.605Z,36.40
2022-11-16T17:30:22.498Z,36.60
2022-11-16T17:32:57.501Z,36.70
2022-11-16T17:35:32.349Z,36.80
2022-11-16T17:38:07.420Z,36.60
2022-11-16T17:40:42.245Z,36.50
2022-11-16T17:43:17.122Z,36.50
2022-11-16T17:45:51.996Z,36.60
2022-11-16T17:48:26.871Z,36.60
2022-11-16T17:51:02.023Z,36.70
2022-11-16T17:53:39.843Z,36.90
2022-11-16T17:56:27.608Z,37.10
2022-11-16T17:59:02.600Z,37.30
2022-11-16T18:01:37.776Z,37.60
2022-11-16T18:04:12.717Z,37.80
2022-11-16T18:06:47.633Z,37.90
2022-11-16T18:09:22.736Z,38.10
2022-11-16T18:11:58.457Z,38.20
2022-11-16T18:14:33.372Z,38.20
2022-11-16T18:17:08.394Z,38.20
2022-11-16T18:19:44.555Z,38.20
2022-11-16T18:22:19.482Z,38.10
2022-11-16T18:24:54.362Z,38.30
2022-11-16T18:27:29.263Z,38.20
2022-11-16T18:30:04.773Z,38.20
2022-11-16T18:32:39.745Z,38.20
2022-11-16T18:35:15.684Z,38.20
2022-11-16T18:37:51.582Z,38.30
2022-11-16T18:40:26.681Z,38.50
2022-11-16T18:43:01.606Z,38.40
2022-11-16T18:45:36.468Z,38.40
2022-11-16T18:48:11.521Z,38.50
2022-11-16T18:50:46.420Z,38.50
2022-11-16T18:53:21.372Z,38.60
2022-11-16T18:55:58.266Z,38.60
2022-11-16T18:58:51.841Z,38.50
2022-11-16T19:01:29.062Z,38.60
2022-11-16T19:04:04.444Z,38.40
2022-11-16T19:06:39.456Z,38.40
2022-11-16T19:09:14.436Z,38.30
2022-11-16T19:11:51.590Z,38.30
2022-11-16T19:14:26.493Z,38.20
2022-11-16T19:17:01.417Z,38.40
2022-11-16T19:19:36.334Z,38.60
2022-11-16T19:22:11.239Z,38.60
2022-11-16T19:24:46.192Z,38.50
2022-11-16T19:27:21.123Z,38.50
2022-11-16T19:29:56.236Z,38.50
2022-11-16T19:32:32.047Z,38.50
2022-11-16T19:35:10.773Z,38.70
2022-11-16T19:37:45.620Z,38.80
2022-11-16T19:40:24.858Z,38.90
2022-11-16T19:43:00.365Z,39.00
2022-11-16T19:45:35.532Z,39.00
2022-11-16T19:48:10.381Z,39.20
2022-11-16T19:50:45.402Z,39.30
2022-11-16T19:53:20.273Z,39.40
2022-11-16T19:55:55.591Z,39.40
2022-11-16T19:58:31.935Z,39.40
2022-11-16T20:01:28.983Z,39.40
2022-11-16T20:04:04.872Z,39.40
2022-11-16T20:06:40.661Z,39.40
2022-11-16T20:09:15.530Z,39.50
2022-11-16T20:11:50.566Z,39.50
2022-11-16T20:14:25.816Z,39.70
2022-11-16T20:17:00.878Z,39.80
2022-11-16T20:19:36.021Z,39.70
2022-11-16T20:22:10.875Z,39.70
2022-11-16T20:24:45.709Z,39.70
2022-11-16T20:27:20.573Z,39.90
2022-11-16T20:29:55.629Z,39.80
2022-11-16T20:32:30.492Z,39.90
2022-11-16T20:35:05.561Z,40.10
2022-11-16T20:37:40.464Z,40.10
2022-11-16T20:40:15.326Z,40.10
2022-11-16T20:42:50.207Z,40.20
2022-11-16T20:45:25.540Z,40.20
2022-11-16T20:48:00.474Z,40.20
2022-11-16T20:50:35.363Z,40.40
2022-11-16T20:53:10.187Z,40.50
2022-11-16T20:55:45.805Z,40.70
2022-11-16T20:58:23.072Z,40.80
2022-11-16T21:01:20.335Z,41.00
2022-11-16T21:03:56.314Z,41.10
2022-11-16T21:06:32.045Z,41.10
2022-11-16T21:09:07.233Z,41.10
2022-11-16T21:12:00.422Z,41.10
2022-11-16T21:14:35.403Z,41.20
2022-11-16T21:17:10.385Z,41.40
2022-11-16T21:20:05.448Z,41.70
2022-11-16T21:22:40.173Z,41.90
2022-11-16T21:25:15.140Z,42.10
2022-11-16T21:27:50.012Z,42.20
2022-11-16T21:30:25.515Z,42.30
2022-11-16T21:33:00.414Z,42.80
2022-11-16T21:35:35.296Z,42.90
2022-11-16T21:38:10.126Z,43.00
2022-11-16T21:40:45.096Z,42.90
2022-11-16T21:43:20.135Z,42.80
2022-11-16T21:46:02.986Z,42.70
2022-11-16T21:48:38.927Z,43.10
2022-11-16T21:51:25.963Z,42.80
2022-11-16T21:54:00.892Z,42.90
2022-11-16T21:56:36.059Z,43.00
2022-11-16T21:59:10.940Z,43.40
2022-11-16T22:02:01.674Z,43.50
2022-11-16T22:04:56.612Z,43.70
2022-11-16T22:07:36.519Z,43.60
2022-11-16T22:10:12.986Z,43.70
2022-11-16T22:12:47.906Z,43.80
2022-11-16T22:15:22.777Z,43.90
2022-11-16T22:17:57.644Z,44.00
2022-11-16T22:20:32.545Z,44.00
2022-11-16T22:23:07.401Z,44.10
2022-11-16T22:25:42.379Z,44.20
2022-11-16T22:28:21.344Z,44.10
2022-11-16T22:31:14.597Z,44.20
2022-11-16T22:33:53.521Z,44.20
2022-11-16T22:36:28.362Z,44.20
2022-11-16T22:39:03.440Z,44.30
2022-11-16T22:41:38.515Z,44.40
2022-11-16T22:44:13.396Z,44.50
2022-11-16T22:46:49.440Z,44.70
2022-11-16T22:49:24.957Z,44.70
2022-11-16T22:51:59.795Z,44.80
2022-11-16T22:54:37.787Z,44.90
2022-11-16T22:57:12.624Z,45.00
2022-11-16T22:59:47.661Z,45.20
2022-11-16T23:02:22.525Z,45.30
2022-11-16T23:04:57.417Z,45.20
2022-11-16T23:07:32.283Z,45.20
2022-11-16T23:10:07.869Z,45.60
2022-11-16T23:13:01.037Z,45.70
2022-11-16T23:15:51.175Z,45.70
2022-11-16T23:18:26.049Z,45.80
2022-11-16T23:21:19.376Z,45.90
2022-11-16T23:24:12.818Z,46.00
2022-11-16T23:27:06.212Z,46.00
2022-11-16T23:29:41.941Z,46.40
2022-11-16T23:32:16.810Z,46.40
2022-11-16T23:34:51.632Z,46.40
2022-11-16T23:37:26.464Z,46.50
2022-11-16T23:40:01.333Z,46.80
2022-11-16T23:42:54.524Z,47.00
2022-11-16T23:45:29.471Z,47.00
2022-11-16T23:48:06.143Z,47.10
2022-11-16T23:50:41.540Z,47.10
2022-11-16T23:53:16.362Z,47.10
2022-11-16T23:55:51.192Z,47.20
2022-11-16T23:58:26.038Z,47.00
